Ipanemas — SVA5292 — position and weather

sailwx.info

Track history (hours):
 
Tides and Currents Weather Stations Pressure Air Temp Water Temp Dewpoint Dewpoint Depression Visibility Wind Speed Wind Dir Waves Ship Positions

Ipanemas

Last reported at 2018-Jul-19 12:55 UTC. Time now 2018-Jul-21 09:44 UTC.
Position N 36°59' E 025°22'.

Length 45 m.

Type: Pleasure craft. MMSI: 241213000.

Date/timePositionNaut miles runAvg speedWind from/ knotsBaromVisibWave heightAir tempDewpointWater temp
2018-Jul-19 12:55N 36°59' E 025°22'614.2
2018-Jul-19 12:30N 37°05' E 025°19'4 7.6
2018-Jul-19 12:00N 37°08' E 025°17'0 0.0
2018-Jul-19 11:29N 37°08' E 025°17'0 0.0
2018-Jul-19 11:00N 37°08' E 025°17'0 0.0
2018-Jul-19 10:30N 37°08' E 025°17'0 0.0
2018-Jul-19 10:00N 37°08' E 025°17'0 0.0
2018-Jul-19 09:30N 37°08' E 025°17'0 0.0
2018-Jul-19 09:00N 37°08' E 025°17'0 0.0
2018-Jul-19 08:30N 37°08' E 025°17'0 0.0
2018-Jul-19 08:00N 37°08' E 025°17'0 0.0
2018-Jul-19 07:30N 37°08' E 025°17'0 0.0
2018-Jul-19 07:00N 37°08' E 025°17'0 0.0
2018-Jul-19 06:30N 37°08' E 025°17'0 0.0
2018-Jul-19 06:00N 37°08' E 025°17'0 0.0
2018-Jul-19 05:30N 37°08' E 025°17'0 0.0
2018-Jul-19 05:00N 37°08' E 025°17'0 0.0
2018-Jul-19 04:30N 37°08' E 025°17'0 0.0
2018-Jul-19 04:00N 37°08' E 025°17'0 0.0
2018-Jul-19 03:30N 37°08' E 025°17'0 0.0
2018-Jul-19 03:00N 37°08' E 025°17'0 0.0
2018-Jul-19 02:30N 37°08' E 025°17'0 0.0
2018-Jul-19 02:00N 37°08' E 025°17'0 0.0
2018-Jul-19 01:30N 37°08' E 025°17'0 0.0
2018-Jul-19 01:00N 37°08' E 025°17'0 0.0
2018-Jul-19 00:30N 37°08' E 025°17'0 0.0
2018-Jul-19 00:00N 37°08' E 025°17'0 0.0
2018-Jul-18 23:30N 37°08' E 025°17'0 0.0
2018-Jul-18 23:00N 37°08' E 025°17'0 0.0
2018-Jul-18 22:30N 37°08' E 025°17'0 0.0
2018-Jul-18 22:00N 37°08' E 025°17'0 0.0
2018-Jul-18 21:30N 37°08' E 025°17'0 0.0
2018-Jul-18 21:00N 37°08' E 025°17'0 0.0
2018-Jul-18 20:30N 37°08' E 025°17'0 0.0
2018-Jul-18 20:00N 37°08' E 025°17'0 0.0
2018-Jul-18 19:30N 37°08' E 025°17'0 0.0
2018-Jul-18 19:00N 37°08' E 025°17'0 0.0
2018-Jul-18 18:30N 37°08' E 025°17'0 0.0
2018-Jul-18 18:00N 37°08' E 025°17'0 0.0
2018-Jul-18 17:30N 37°08' E 025°17'0 0.2
2018-Jul-18 17:00N 37°08' E 025°17'3 6.3
2018-Jul-18 16:30N 37°08' E 025°13'1 2.2
2018-Jul-18 16:01N 37°08' E 025°14'714.5
2018-Jul-18 15:31N 37°16' E 025°14'815.2
2018-Jul-18 15:01N 37°23' E 025°17'5 9.0
2018-Jul-18 14:30N 37°27' E 025°20'0 0.0
2018-Jul-18 13:30N 37°27' E 025°20'0 0.0
2018-Jul-18 13:00N 37°27' E 025°20'0 0.0
2018-Jul-18 12:30N 37°27' E 025°20'0 0.0
2018-Jul-18 12:00N 37°27' E 025°20'0 0.0
2018-Jul-18 11:30N 37°27' E 025°20'3 2.7
2018-Jul-18 10:30N 37°28' E 025°16'75 2.9
2018-Jul-17 08:11N 37°28' E 023°42'314.6
2018-Jul-17 08:00N 37°29' E 023°38'814.5
2018-Jul-17 07:26N 37°30' E 023°28'1 0.1
2018-Jul-16 15:55N 37°30' E 023°27'2 0.6
2018-Jul-16 13:11N 37°31' E 023°25'313.5
2018-Jul-16 12:59N 37°33' E 023°27'714.7
2018-Jul-16 12:31N 37°39' E 023°32'714.6
2018-Jul-16 12:01N 37°45' E 023°37'714.6
2018-Jul-16 11:31N 37°51' E 023°42'2 3.6
2018-Jul-16 11:00N 37°53' E 023°44'0 0.0
2018-Jul-16 10:31N 37°53' E 023°44'0 0.0
2018-Jul-16 10:01N 37°53' E 023°44'0 0.0
2018-Jul-16 09:30N 37°53' E 023°44'0 0.0
2018-Jul-16 09:00N 37°53' E 023°44'0 0.0
2018-Jul-16 08:30N 37°53' E 023°44'0 0.0
2018-Jul-16 08:00N 37°53' E 023°44'0 0.0
2018-Jul-16 07:30N 37°53' E 023°44'0 0.0
2018-Jul-16 07:00N 37°53' E 023°44'0 0.0
2018-Jul-16 06:30N 37°53' E 023°44'0 0.0
2018-Jul-16 06:00N 37°53' E 023°44'0 0.0
2018-Jul-16 05:30N 37°53' E 023°44'0 0.0
2018-Jul-16 05:00N 37°53' E 023°44'0 0.0
2018-Jul-16 04:30N 37°53' E 023°44'0 0.0
2018-Jul-16 04:00N 37°53' E 023°44'0 0.0
2018-Jul-16 03:30N 37°53' E 023°44'0 0.0
2018-Jul-16 03:00N 37°53' E 023°44'0 0.0
2018-Jul-16 02:30N 37°53' E 023°44'0 0.0
2018-Jul-16 02:00N 37°53' E 023°44'0 0.0
2018-Jul-16 01:30N 37°53' E 023°44'0 0.0
2018-Jul-16 01:00N 37°53' E 023°44'0 0.0
2018-Jul-16 00:30N 37°53' E 023°44'0 0.0
2018-Jul-16 00:00N 37°53' E 023°44'0 0.0
2018-Jul-15 23:30N 37°53' E 023°44'0 0.0
2018-Jul-15 23:00N 37°53' E 023°44'0 0.0
2018-Jul-15 22:30N 37°53' E 023°44'0 0.0
2018-Jul-15 22:00N 37°53' E 023°44'0 0.0
2018-Jul-15 21:30N 37°53' E 023°44'0 0.0
2018-Jul-15 21:00N 37°53' E 023°44'0 0.0
2018-Jul-15 20:30N 37°53' E 023°44'0 0.0
2018-Jul-15 20:00N 37°53' E 023°44'0 0.0
2018-Jul-15 19:30N 37°53' E 023°44'0 0.0
2018-Jul-15 19:00N 37°53' E 023°44'0 0.0
2018-Jul-15 18:30N 37°53' E 023°44'0 0.0
2018-Jul-15 18:00N 37°53' E 023°44'0 0.0
2018-Jul-15 17:30N 37°53' E 023°44'0 0.0
2018-Jul-15 17:00N 37°53' E 023°44'0 0.0
2018-Jul-15 16:30N 37°53' E 023°44'0 0.0
2018-Jul-15 16:00N 37°53' E 023°44'0 0.0
2018-Jul-15 15:30N 37°53' E 023°44'0 0.0
2018-Jul-15 15:00N 37°53' E 023°44'0 0.0
2018-Jul-15 14:30N 37°53' E 023°44'0 0.0
2018-Jul-15 14:00N 37°53' E 023°44'0 0.0
2018-Jul-15 13:30N 37°53' E 023°44'0 0.0
2018-Jul-15 13:00N 37°53' E 023°44'0 0.0
2018-Jul-15 12:30N 37°53' E 023°44'0 0.0
2018-Jul-15 12:00N 37°53' E 023°44'0 0.0
2018-Jul-15 11:30N 37°53' E 023°44'0 0.0
2018-Jul-15 11:00N 37°53' E 023°44'0 0.0
2018-Jul-15 10:30N 37°53' E 023°44'0 0.0
2018-Jul-15 10:00N 37°53' E 023°44'0 0.0
2018-Jul-15 09:30N 37°53' E 023°44'0 0.0
2018-Jul-15 09:00N 37°53' E 023°44'0 0.0
2018-Jul-15 08:30N 37°53' E 023°44'0 0.0
2018-Jul-15 08:00N 37°53' E 023°44'0 0.0
2018-Jul-15 07:30N 37°53' E 023°44'0 0.0
2018-Jul-15 07:00N 37°53' E 023°44'0 0.0
2018-Jul-15 06:30N 37°53' E 023°44'0 0.0
2018-Jul-15 06:00N 37°53' E 023°44'0 0.0
2018-Jul-15 05:30N 37°53' E 023°44'0 0.0
2018-Jul-15 05:00N 37°53' E 023°44'0 0.0
2018-Jul-15 04:30N 37°53' E 023°44'0 0.0
2018-Jul-15 04:00N 37°53' E 023°44'0 0.0
2018-Jul-15 03:30N 37°53' E 023°44'0 0.0
2018-Jul-15 03:00N 37°53' E 023°44'0 0.0
2018-Jul-15 02:30N 37°53' E 023°44'0 0.0
2018-Jul-15 02:00N 37°53' E 023°44'0 0.0
2018-Jul-15 01:30N 37°53' E 023°44'0 0.0
2018-Jul-15 01:00N 37°53' E 023°44'0 0.0
2018-Jul-15 00:30N 37°53' E 023°44'0 0.0
2018-Jul-15 00:00N 37°53' E 023°44'0 0.0
2018-Jul-14 23:30N 37°53' E 023°44'0 0.0
2018-Jul-14 23:00N 37°53' E 023°44'0 0.0
2018-Jul-14 22:30N 37°53' E 023°44'0 0.0
2018-Jul-14 22:00N 37°53' E 023°44'0 0.0
2018-Jul-14 21:30N 37°53' E 023°44'0 0.0
2018-Jul-14 21:00N 37°53' E 023°44'0 0.0
2018-Jul-14 20:30N 37°53' E 023°44'0 0.0
2018-Jul-14 20:00N 37°53' E 023°44'0 0.0
2018-Jul-14 19:30N 37°53' E 023°44'0 0.0
2018-Jul-14 19:00N 37°53' E 023°44'0 0.0
2018-Jul-14 18:30N 37°53' E 023°44'0 0.0
2018-Jul-14 18:00N 37°53' E 023°44'0 0.0
2018-Jul-14 17:30N 37°53' E 023°44'0 0.0
2018-Jul-14 17:00N 37°53' E 023°44'0 0.0
2018-Jul-14 16:30N 37°53' E 023°44'0 0.0
2018-Jul-14 16:00N 37°53' E 023°44'0 0.0
2018-Jul-14 15:30N 37°53' E 023°44'0 0.0
2018-Jul-14 15:00N 37°53' E 023°44'0 0.0
2018-Jul-14 14:30N 37°53' E 023°44'0 0.0
2018-Jul-14 13:30N 37°53' E 023°44'0 0.0
2018-Jul-14 13:00N 37°53' E 023°44'0 0.4
2018-Jul-14 12:31N 37°53' E 023°43'714.7
2018-Jul-14 12:00N 37°45' E 023°45'6511.5
2018-Jul-14 06:24N 37°33' E 025°05'814.5
2018-Jul-14 05:51N 37°29' E 025°14'514.4
2018-Jul-14 05:29N 37°25' E 025°17'713.8
2018-Jul-14 05:00N 37°25' E 025°26'612.9
2018-Jul-14 04:31N 37°29' E 025°32'1511.8
2018-Jul-14 03:13N 37°27' E 025°51'315.1
2018-Jul-14 03:00N 37°28' E 025°55'  
Track history (hours):
 
Tides and Currents Weather Stations Pressure Air Temp Water Temp Dewpoint Dewpoint Depression Visibility Wind Speed Wind Dir Waves Ship Positions

Ipanemas

Last reported at 2018-Jul-19 12:55 UTC. Time now 2018-Jul-21 09:44 UTC.
Position N 36°59' E 025°22'.

Length 45 m.

Type: Pleasure craft. MMSI: 241213000.

Date/timePositionNaut miles runAvg speedWind from/ knotsBaromVisibWave heightAir tempDewpointWater temp
2018-Jul-19 12:55N 36°59' E 025°22'614.2
2018-Jul-19 12:30N 37°05' E 025°19'4 7.6
2018-Jul-19 12:00N 37°08' E 025°17'0 0.0
2018-Jul-19 11:29N 37°08' E 025°17'0 0.0
2018-Jul-19 11:00N 37°08' E 025°17'0 0.0
2018-Jul-19 10:30N 37°08' E 025°17'0 0.0
2018-Jul-19 10:00N 37°08' E 025°17'0 0.0
2018-Jul-19 09:30N 37°08' E 025°17'0 0.0
2018-Jul-19 09:00N 37°08' E 025°17'0 0.0
2018-Jul-19 08:30N 37°08' E 025°17'0 0.0
2018-Jul-19 08:00N 37°08' E 025°17'0 0.0
2018-Jul-19 07:30N 37°08' E 025°17'0 0.0
2018-Jul-19 07:00N 37°08' E 025°17'0 0.0
2018-Jul-19 06:30N 37°08' E 025°17'0 0.0
2018-Jul-19 06:00N 37°08' E 025°17'0 0.0
2018-Jul-19 05:30N 37°08' E 025°17'0 0.0
2018-Jul-19 05:00N 37°08' E 025°17'0 0.0
2018-Jul-19 04:30N 37°08' E 025°17'0 0.0
2018-Jul-19 04:00N 37°08' E 025°17'0 0.0
2018-Jul-19 03:30N 37°08' E 025°17'0 0.0
2018-Jul-19 03:00N 37°08' E 025°17'0 0.0
2018-Jul-19 02:30N 37°08' E 025°17'0 0.0
2018-Jul-19 02:00N 37°08' E 025°17'0 0.0
2018-Jul-19 01:30N 37°08' E 025°17'0 0.0
2018-Jul-19 01:00N 37°08' E 025°17'0 0.0
2018-Jul-19 00:30N 37°08' E 025°17'0 0.0
2018-Jul-19 00:00N 37°08' E 025°17'0 0.0
2018-Jul-18 23:30N 37°08' E 025°17'0 0.0
2018-Jul-18 23:00N 37°08' E 025°17'0 0.0
2018-Jul-18 22:30N 37°08' E 025°17'0 0.0
2018-Jul-18 22:00N 37°08' E 025°17'0 0.0
2018-Jul-18 21:30N 37°08' E 025°17'0 0.0
2018-Jul-18 21:00N 37°08' E 025°17'0 0.0
2018-Jul-18 20:30N 37°08' E 025°17'0 0.0
2018-Jul-18 20:00N 37°08' E 025°17'0 0.0
2018-Jul-18 19:30N 37°08' E 025°17'0 0.0
2018-Jul-18 19:00N 37°08' E 025°17'0 0.0
2018-Jul-18 18:30N 37°08' E 025°17'0 0.0
2018-Jul-18 18:00N 37°08' E 025°17'0 0.0
2018-Jul-18 17:30N 37°08' E 025°17'0 0.2
2018-Jul-18 17:00N 37°08' E 025°17'3 6.3
2018-Jul-18 16:30N 37°08' E 025°13'1 2.2
2018-Jul-18 16:01N 37°08' E 025°14'714.5
2018-Jul-18 15:31N 37°16' E 025°14'815.2
2018-Jul-18 15:01N 37°23' E 025°17'5 9.0
2018-Jul-18 14:30N 37°27' E 025°20'0 0.0
2018-Jul-18 13:30N 37°27' E 025°20'0 0.0
2018-Jul-18 13:00N 37°27' E 025°20'0 0.0
2018-Jul-18 12:30N 37°27' E 025°20'0 0.0
2018-Jul-18 12:00N 37°27' E 025°20'0 0.0
2018-Jul-18 11:30N 37°27' E 025°20'3 2.7
2018-Jul-18 10:30N 37°28' E 025°16'75 2.9
2018-Jul-17 08:11N 37°28' E 023°42'314.6
2018-Jul-17 08:00N 37°29' E 023°38'814.5
2018-Jul-17 07:26N 37°30' E 023°28'1 0.1
2018-Jul-16 15:55N 37°30' E 023°27'2 0.6
2018-Jul-16 13:11N 37°31' E 023°25'313.5
2018-Jul-16 12:59N 37°33' E 023°27'714.7
2018-Jul-16 12:31N 37°39' E 023°32'714.6
2018-Jul-16 12:01N 37°45' E 023°37'714.6
2018-Jul-16 11:31N 37°51' E 023°42'2 3.6
2018-Jul-16 11:00N 37°53' E 023°44'0 0.0
2018-Jul-16 10:31N 37°53' E 023°44'0 0.0
2018-Jul-16 10:01N 37°53' E 023°44'0 0.0
2018-Jul-16 09:30N 37°53' E 023°44'0 0.0
2018-Jul-16 09:00N 37°53' E 023°44'0 0.0
2018-Jul-16 08:30N 37°53' E 023°44'0 0.0
2018-Jul-16 08:00N 37°53' E 023°44'0 0.0
2018-Jul-16 07:30N 37°53' E 023°44'0 0.0
2018-Jul-16 07:00N 37°53' E 023°44'0 0.0
2018-Jul-16 06:30N 37°53' E 023°44'0 0.0
2018-Jul-16 06:00N 37°53' E 023°44'0 0.0
2018-Jul-16 05:30N 37°53' E 023°44'0 0.0
2018-Jul-16 05:00N 37°53' E 023°44'0 0.0
2018-Jul-16 04:30N 37°53' E 023°44'0 0.0
2018-Jul-16 04:00N 37°53' E 023°44'0 0.0
2018-Jul-16 03:30N 37°53' E 023°44'0 0.0
2018-Jul-16 03:00N 37°53' E 023°44'0 0.0
2018-Jul-16 02:30N 37°53' E 023°44'0 0.0
2018-Jul-16 02:00N 37°53' E 023°44'0 0.0
2018-Jul-16 01:30N 37°53' E 023°44'0 0.0
2018-Jul-16 01:00N 37°53' E 023°44'0 0.0
2018-Jul-16 00:30N 37°53' E 023°44'0 0.0
2018-Jul-16 00:00N 37°53' E 023°44'0 0.0
2018-Jul-15 23:30N 37°53' E 023°44'0 0.0
2018-Jul-15 23:00N 37°53' E 023°44'0 0.0
2018-Jul-15 22:30N 37°53' E 023°44'0 0.0
2018-Jul-15 22:00N 37°53' E 023°44'0 0.0
2018-Jul-15 21:30N 37°53' E 023°44'0 0.0
2018-Jul-15 21:00N 37°53' E 023°44'0 0.0
2018-Jul-15 20:30N 37°53' E 023°44'0 0.0
2018-Jul-15 20:00N 37°53' E 023°44'0 0.0
2018-Jul-15 19:30N 37°53' E 023°44'0 0.0
2018-Jul-15 19:00N 37°53' E 023°44'0 0.0
2018-Jul-15 18:30N 37°53' E 023°44'0 0.0
2018-Jul-15 18:00N 37°53' E 023°44'0 0.0
2018-Jul-15 17:30N 37°53' E 023°44'0 0.0
2018-Jul-15 17:00N 37°53' E 023°44'0 0.0
2018-Jul-15 16:30N 37°53' E 023°44'0 0.0
2018-Jul-15 16:00N 37°53' E 023°44'0 0.0
2018-Jul-15 15:30N 37°53' E 023°44'0 0.0
2018-Jul-15 15:00N 37°53' E 023°44'0 0.0
2018-Jul-15 14:30N 37°53' E 023°44'0 0.0
2018-Jul-15 14:00N 37°53' E 023°44'0 0.0
2018-Jul-15 13:30N 37°53' E 023°44'0 0.0
2018-Jul-15 13:00N 37°53' E 023°44'0 0.0
2018-Jul-15 12:30N 37°53' E 023°44'0 0.0
2018-Jul-15 12:00N 37°53' E 023°44'0 0.0
2018-Jul-15 11:30N 37°53' E 023°44'0 0.0
2018-Jul-15 11:00N 37°53' E 023°44'0 0.0
2018-Jul-15 10:30N 37°53' E 023°44'0 0.0
2018-Jul-15 10:00N 37°53' E 023°44'0 0.0
2018-Jul-15 09:30N 37°53' E 023°44'0 0.0
2018-Jul-15 09:00N 37°53' E 023°44'0 0.0
2018-Jul-15 08:30N 37°53' E 023°44'0 0.0
2018-Jul-15 08:00N 37°53' E 023°44'0 0.0
2018-Jul-15 07:30N 37°53' E 023°44'0 0.0
2018-Jul-15 07:00N 37°53' E 023°44'0 0.0
2018-Jul-15 06:30N 37°53' E 023°44'0 0.0
2018-Jul-15 06:00N 37°53' E 023°44'0 0.0
2018-Jul-15 05:30N 37°53' E 023°44'0 0.0
2018-Jul-15 05:00N 37°53' E 023°44'0 0.0
2018-Jul-15 04:30N 37°53' E 023°44'0 0.0
2018-Jul-15 04:00N 37°53' E 023°44'0 0.0
2018-Jul-15 03:30N 37°53' E 023°44'0 0.0
2018-Jul-15 03:00N 37°53' E 023°44'0 0.0
2018-Jul-15 02:30N 37°53' E 023°44'0 0.0
2018-Jul-15 02:00N 37°53' E 023°44'0 0.0
2018-Jul-15 01:30N 37°53' E 023°44'0 0.0
2018-Jul-15 01:00N 37°53' E 023°44'0 0.0
2018-Jul-15 00:30N 37°53' E 023°44'0 0.0
2018-Jul-15 00:00N 37°53' E 023°44'0 0.0
2018-Jul-14 23:30N 37°53' E 023°44'0 0.0
2018-Jul-14 23:00N 37°53' E 023°44'0 0.0
2018-Jul-14 22:30N 37°53' E 023°44'0 0.0
2018-Jul-14 22:00N 37°53' E 023°44'0 0.0
2018-Jul-14 21:30N 37°53' E 023°44'0 0.0
2018-Jul-14 21:00N 37°53' E 023°44'0 0.0
2018-Jul-14 20:30N 37°53' E 023°44'0 0.0
2018-Jul-14 20:00N 37°53' E 023°44'0 0.0
2018-Jul-14 19:30N 37°53' E 023°44'0 0.0
2018-Jul-14 19:00N 37°53' E 023°44'0 0.0
2018-Jul-14 18:30N 37°53' E 023°44'0 0.0
2018-Jul-14 18:00N 37°53' E 023°44'0 0.0
2018-Jul-14 17:30N 37°53' E 023°44'0 0.0
2018-Jul-14 17:00N 37°53' E 023°44'0 0.0
2018-Jul-14 16:30N 37°53' E 023°44'0 0.0
2018-Jul-14 16:00N 37°53' E 023°44'0 0.0
2018-Jul-14 15:30N 37°53' E 023°44'0 0.0
2018-Jul-14 15:00N 37°53' E 023°44'0 0.0
2018-Jul-14 14:30N 37°53' E 023°44'0 0.0
2018-Jul-14 13:30N 37°53' E 023°44'0 0.0
2018-Jul-14 13:00N 37°53' E 023°44'0 0.4
2018-Jul-14 12:31N 37°53' E 023°43'714.7
2018-Jul-14 12:00N 37°45' E 023°45'6511.5
2018-Jul-14 06:24N 37°33' E 025°05'814.5
2018-Jul-14 05:51N 37°29' E 025°14'514.4
2018-Jul-14 05:29N 37°25' E 025°17'713.8
2018-Jul-14 05:00N 37°25' E 025°26'612.9
2018-Jul-14 04:31N 37°29' E 025°32'1511.8
2018-Jul-14 03:13N 37°27' E 025°51'315.1
2018-Jul-14 03:00N 37°28' E 025°55'  

Dump ship's entire track history